createdAt,value
2023-02-16T00:00:39.450Z,1.58
2023-02-16T00:01:39.438Z,1.52
2023-02-16T00:02:39.484Z,1.55
2023-02-16T00:03:39.468Z,1.55
2023-02-16T00:04:39.432Z,1.52
2023-02-16T00:05:39.421Z,1.50
2023-02-16T00:06:39.392Z,1.50
2023-02-16T00:07:39.389Z,1.50
2023-02-16T00:08:39.374Z,1.49
2023-02-16T00:09:39.381Z,1.48
2023-02-16T00:10:39.350Z,1.49
2023-02-16T00:11:39.351Z,1.50
2023-02-16T00:12:39.336Z,1.50
2023-02-16T00:13:39.333Z,1.50
2023-02-16T00:14:39.324Z,1.48
2023-02-16T00:15:39.352Z,1.45
2023-02-16T00:16:39.290Z,1.44
2023-02-16T00:17:39.296Z,1.44
2023-02-16T00:18:39.297Z,1.48
2023-02-16T00:19:39.321Z,1.49
2023-02-16T00:20:39.254Z,1.48
2023-02-16T00:21:39.254Z,1.45
2023-02-16T00:22:39.968Z,1.45
2023-02-16T00:23:39.252Z,1.44
2023-02-16T00:24:39.215Z,1.45
2023-02-16T00:25:39.217Z,1.44
2023-02-16T00:26:39.196Z,1.42
2023-02-16T00:27:39.184Z,1.42
2023-02-16T00:28:39.186Z,1.41
2023-02-16T00:29:39.174Z,1.38
2023-02-16T00:30:39.158Z,1.40
2023-02-16T00:31:39.342Z,1.40
2023-02-16T00:32:39.143Z,1.41
2023-02-16T00:33:39.140Z,1.40
2023-02-16T00:34:39.116Z,1.41
2023-02-16T00:35:39.118Z,1.40
2023-02-16T00:36:39.095Z,1.41
2023-02-16T00:37:39.096Z,1.42
2023-02-16T00:38:39.094Z,1.44
2023-02-16T00:39:39.092Z,1.44
2023-02-16T00:40:39.061Z,1.44
2023-02-16T00:41:39.057Z,1.45
2023-02-16T00:42:39.042Z,1.49
2023-02-16T00:43:39.044Z,1.45
2023-02-16T00:44:39.028Z,1.45
2023-02-16T00:45:39.028Z,1.42
2023-02-16T00:46:39.006Z,1.40
2023-02-16T00:47:39.003Z,1.41
2023-02-16T00:48:39.733Z,1.38
2023-02-16T00:49:38.979Z,1.37
2023-02-16T00:50:38.963Z,1.35
2023-02-16T00:51:38.963Z,1.32
2023-02-16T00:52:38.944Z,1.30
2023-02-16T00:53:39.232Z,1.31
2023-02-16T00:54:38.923Z,1.28
2023-02-16T00:55:38.928Z,1.32
2023-02-16T00:56:38.909Z,1.31
2023-02-16T00:57:38.906Z,1.30
2023-02-16T00:58:38.922Z,1.28
2023-02-16T00:59:38.886Z,1.28
2023-02-16T01:00:38.876Z,1.30
2023-02-16T01:01:38.919Z,1.30
2023-02-16T01:02:38.849Z,1.28
2023-02-16T01:03:39.155Z,1.28
2023-02-16T01:04:38.894Z,1.30
2023-02-16T01:05:38.822Z,1.32
2023-02-16T01:06:38.810Z,1.32
2023-02-16T01:07:38.803Z,1.34
2023-02-16T01:08:39.260Z,1.34
2023-02-16T01:09:38.783Z,1.34
2023-02-16T01:10:38.779Z,1.31
2023-02-16T01:11:38.756Z,1.34
2023-02-16T01:12:38.745Z,1.34
2023-02-16T01:13:39.059Z,1.31
2023-02-16T01:14:38.737Z,1.32
2023-02-16T01:15:38.756Z,1.30
2023-02-16T01:16:38.710Z,1.28
2023-02-16T01:17:38.710Z,1.26
2023-02-16T01:18:39.270Z,1.26
2023-02-16T01:19:38.680Z,1.26
2023-02-16T01:20:38.672Z,1.24
2023-02-16T01:21:38.652Z,1.26
2023-02-16T01:22:38.650Z,1.26
2023-02-16T01:23:38.633Z,1.26
2023-02-16T01:24:38.635Z,1.24
2023-02-16T01:25:38.621Z,1.23
2023-02-16T01:26:38.613Z,1.22
2023-02-16T01:27:38.613Z,1.20
2023-02-16T01:28:38.594Z,1.19
2023-02-16T01:29:38.584Z,1.17
2023-02-16T01:30:38.579Z,1.16
2023-02-16T01:31:38.823Z,1.16
2023-02-16T01:32:38.556Z,1.14
2023-02-16T01:33:38.538Z,1.14
2023-02-16T01:34:38.541Z,1.14
2023-02-16T01:35:38.525Z,1.14
2023-02-16T01:36:38.518Z,1.14
2023-02-16T01:37:38.502Z,1.16
2023-02-16T01:38:38.494Z,1.13
2023-02-16T01:39:38.487Z,1.16
2023-02-16T01:40:38.472Z,1.12
2023-02-16T01:41:38.463Z,1.13
2023-02-16T01:42:38.452Z,1.14
2023-02-16T01:43:38.442Z,1.13
2023-02-16T01:44:38.444Z,1.08
2023-02-16T01:45:38.443Z,1.10
2023-02-16T01:46:38.446Z,1.08
2023-02-16T01:47:38.404Z,1.08
2023-02-16T01:48:38.399Z,1.08
2023-02-16T01:49:38.391Z,1.08
2023-02-16T01:50:38.377Z,1.02
2023-02-16T01:51:38.360Z,1.02
2023-02-16T01:52:38.357Z,1.04
2023-02-16T01:53:38.349Z,1.05
2023-02-16T01:54:38.360Z,1.05
2023-02-16T01:55:38.321Z,1.02
2023-02-16T01:56:38.316Z,1.04
2023-02-16T01:57:38.315Z,0.99
2023-02-16T01:58:38.295Z,1.01
2023-02-16T01:59:38.292Z,0.99
2023-02-16T02:00:38.285Z,0.96
2023-02-16T02:01:38.331Z,0.98
2023-02-16T02:02:38.312Z,0.95
2023-02-16T02:03:38.247Z,0.96
2023-02-16T02:04:38.248Z,0.99
2023-02-16T02:05:38.223Z,0.99
2023-02-16T02:06:38.233Z,0.98
2023-02-16T02:07:38.205Z,0.96
2023-02-16T02:08:38.202Z,0.96
2023-02-16T02:09:38.192Z,0.94
2023-02-16T02:10:38.179Z,0.98
2023-02-16T02:11:38.162Z,0.96
2023-02-16T02:12:38.163Z,0.98
2023-02-16T02:13:38.141Z,0.96
2023-02-16T02:14:38.143Z,0.99
2023-02-16T02:15:38.127Z,0.96
2023-02-16T02:16:38.136Z,0.95
2023-02-16T02:17:38.106Z,0.92
2023-02-16T02:18:38.114Z,0.91
2023-02-16T02:19:38.118Z,0.91
2023-02-16T02:20:38.069Z,0.91
2023-02-16T02:21:38.078Z,0.88
2023-02-16T02:22:38.063Z,0.88
2023-02-16T02:23:38.061Z,0.87
2023-02-16T02:24:38.037Z,0.86
2023-02-16T02:25:38.036Z,0.88
2023-02-16T02:26:38.022Z,0.87
2023-02-16T02:27:38.005Z,0.87
2023-02-16T02:28:37.993Z,0.92
2023-02-16T02:29:38.003Z,0.92
2023-02-16T02:30:37.978Z,0.91
2023-02-16T02:31:37.993Z,0.88
2023-02-16T02:32:37.965Z,0.86
2023-02-16T02:33:37.951Z,0.84
2023-02-16T02:34:37.949Z,0.84
2023-02-16T02:35:37.929Z,0.81
2023-02-16T02:36:37.919Z,0.86
2023-02-16T02:37:37.909Z,0.86
2023-02-16T02:38:37.897Z,0.84
2023-02-16T02:39:37.890Z,0.88
2023-02-16T02:40:37.884Z,0.87
2023-02-16T02:41:37.868Z,0.91
2023-02-16T02:42:37.861Z,0.88
2023-02-16T02:43:37.854Z,0.91
2023-02-16T02:44:37.849Z,0.92
2023-02-16T02:45:37.828Z,0.91
2023-02-16T02:46:37.861Z,0.92
2023-02-16T02:47:37.809Z,0.95
2023-02-16T02:48:37.792Z,0.96
2023-02-16T02:49:37.795Z,0.96
2023-02-16T02:50:37.773Z,0.96
2023-02-16T02:51:37.776Z,0.96
2023-02-16T02:52:37.756Z,0.98
2023-02-16T02:53:37.749Z,1.01
2023-02-16T02:54:37.736Z,1.01
2023-02-16T02:55:37.728Z,0.98
2023-02-16T02:56:37.714Z,0.99
2023-02-16T02:57:37.712Z,1.02
2023-02-16T02:58:37.703Z,1.01
2023-02-16T02:59:37.697Z,1.04
2023-02-16T03:00:37.752Z,1.04
2023-02-16T03:01:37.704Z,1.02
2023-02-16T03:02:37.661Z,1.05
2023-02-16T03:03:37.657Z,1.04
2023-02-16T03:04:37.661Z,1.05
2023-02-16T03:05:37.630Z,1.06
2023-02-16T03:06:37.609Z,1.06
2023-02-16T03:07:37.620Z,1.04
2023-02-16T03:08:37.597Z,1.04
2023-02-16T03:09:37.597Z,1.04
2023-02-16T03:10:37.579Z,1.05
2023-02-16T03:11:37.572Z,1.04
2023-02-16T03:12:37.558Z,1.04
2023-02-16T03:13:37.552Z,1.02
2023-02-16T03:14:37.539Z,1.04
2023-02-16T03:15:37.529Z,1.04
2023-02-16T03:16:37.621Z,0.99
2023-02-16T03:17:37.505Z,0.96
2023-02-16T03:18:37.498Z,0.98
2023-02-16T03:19:37.496Z,0.94
2023-02-16T03:20:37.476Z,0.95
2023-02-16T03:21:37.468Z,0.94
2023-02-16T03:22:37.457Z,0.92
2023-02-16T03:23:37.451Z,0.88
2023-02-16T03:24:37.442Z,0.87
2023-02-16T03:25:37.439Z,0.87
2023-02-16T03:26:37.428Z,0.88
2023-02-16T03:27:37.406Z,0.87
2023-02-16T03:28:37.393Z,0.86
2023-02-16T03:29:37.389Z,0.83
2023-02-16T03:30:37.507Z,0.87
2023-02-16T03:31:37.465Z,0.86
2023-02-16T03:32:37.377Z,0.86
2023-02-16T03:33:37.345Z,0.86
2023-02-16T03:34:37.356Z,0.87
2023-02-16T03:35:37.344Z,0.86
2023-02-16T03:36:37.331Z,0.84
2023-02-16T03:37:37.309Z,0.86
2023-02-16T03:38:37.296Z,0.83
2023-02-16T03:39:37.289Z,0.86
2023-02-16T03:40:37.275Z,0.86
2023-02-16T03:41:37.265Z,0.88
2023-02-16T03:42:37.251Z,0.87
2023-02-16T03:43:37.287Z,0.88
2023-02-16T03:44:37.241Z,0.88
2023-02-16T03:45:37.300Z,0.88
2023-02-16T03:46:37.212Z,0.91
2023-02-16T03:47:37.207Z,0.94
2023-02-16T03:48:37.197Z,0.94
2023-02-16T03:49:37.191Z,0.91
2023-02-16T03:50:37.174Z,0.91
2023-02-16T03:51:37.176Z,0.92
2023-02-16T03:52:37.157Z,0.91
2023-02-16T03:53:37.167Z,0.87
2023-02-16T03:54:37.158Z,0.83
2023-02-16T03:55:37.137Z,0.80
2023-02-16T03:56:37.121Z,0.81
2023-02-16T03:57:37.106Z,0.81
2023-02-16T03:58:37.093Z,0.78
2023-02-16T03:59:37.464Z,0.78
2023-02-16T04:00:37.096Z,0.77
2023-02-16T04:01:37.072Z,0.77
2023-02-16T04:02:37.061Z,0.73
2023-02-16T04:03:37.051Z,0.74
2023-02-16T04:04:37.983Z,0.73
2023-02-16T04:05:37.042Z,0.73
2023-02-16T04:06:37.019Z,0.73
2023-02-16T04:07:37.019Z,0.69
2023-02-16T04:08:36.999Z,0.68
2023-02-16T04:09:37.451Z,0.65
2023-02-16T04:10:36.979Z,0.65
2023-02-16T04:11:36.975Z,0.65
2023-02-16T04:12:37.060Z,0.66
2023-02-16T04:13:36.950Z,0.63
2023-02-16T04:14:37.231Z,0.63
2023-02-16T04:15:36.935Z,0.63
2023-02-16T04:16:36.965Z,0.63
2023-02-16T04:17:36.913Z,0.62
2023-02-16T04:18:36.903Z,0.63
2023-02-16T04:19:37.231Z,0.63
2023-02-16T04:20:36.877Z,0.66
2023-02-16T04:21:36.878Z,0.65
2023-02-16T04:22:36.852Z,0.65
2023-02-16T04:23:36.862Z,0.66
2023-02-16T04:24:37.592Z,0.65
2023-02-16T04:25:36.828Z,0.60
2023-02-16T04:26:36.816Z,0.59
2023-02-16T04:27:36.808Z,0.59
2023-02-16T04:28:36.794Z,0.56
2023-02-16T04:29:36.784Z,0.52
2023-02-16T04:30:36.933Z,0.55
2023-02-16T04:31:36.865Z,0.55
2023-02-16T04:32:36.758Z,0.50
2023-02-16T04:33:36.746Z,0.50
2023-02-16T04:34:36.737Z,0.50
2023-02-16T04:35:36.752Z,0.49
2023-02-16T04:36:36.728Z,0.44
2023-02-16T04:37:36.709Z,0.40
2023-02-16T04:38:36.688Z,0.41
2023-02-16T04:39:36.687Z,0.46
2023-02-16T04:40:36.673Z,0.44
2023-02-16T04:41:36.669Z,0.49
2023-02-16T04:42:36.652Z,0.49
2023-02-16T04:43:36.662Z,0.47
2023-02-16T04:44:36.635Z,0.46
2023-02-16T04:45:36.642Z,0.44
2023-02-16T04:46:36.627Z,0.52
2023-02-16T04:47:36.609Z,0.50
2023-02-16T04:48:36.605Z,0.52
2023-02-16T04:49:36.585Z,0.52
2023-02-16T04:50:36.575Z,0.56
2023-02-16T04:51:36.565Z,0.56
2023-02-16T04:52:36.554Z,0.55
2023-02-16T04:53:36.543Z,0.52
2023-02-16T04:54:36.542Z,0.55
2023-02-16T04:55:36.533Z,0.55
2023-02-16T04:56:36.510Z,0.58
2023-02-16T04:57:36.528Z,0.55
2023-02-16T04:58:36.498Z,0.55
2023-02-16T04:59:36.486Z,0.56
2023-02-16T05:00:36.730Z,0.56
2023-02-16T05:01:36.521Z,0.56
2023-02-16T05:02:36.454Z,0.55
2023-02-16T05:03:36.453Z,0.55
2023-02-16T05:04:36.539Z,0.52
2023-02-16T05:05:36.434Z,0.55
2023-02-16T05:06:36.415Z,0.58
2023-02-16T05:07:36.409Z,0.52
2023-02-16T05:08:36.351Z,0.55
2023-02-16T05:09:36.334Z,0.56
2023-02-16T05:10:36.326Z,0.52
2023-02-16T05:11:36.319Z,0.56
2023-02-16T05:12:36.334Z,0.55
2023-02-16T05:13:36.289Z,0.50
2023-02-16T05:14:36.277Z,0.49
2023-02-16T05:15:36.312Z,0.52
2023-02-16T05:16:36.269Z,0.52
2023-02-16T05:17:36.246Z,0.50
2023-02-16T05:18:36.236Z,0.50
2023-02-16T05:19:36.238Z,0.50
2023-02-16T05:20:36.225Z,0.49
2023-02-16T05:21:36.212Z,0.47
2023-02-16T05:22:36.289Z,0.49
2023-02-16T05:23:36.201Z,0.47
2023-02-16T05:24:36.183Z,0.44
2023-02-16T05:25:36.209Z,0.46
2023-02-16T05:26:36.178Z,0.46
2023-02-16T05:27:36.153Z,0.47
2023-02-16T05:28:36.186Z,0.47
2023-02-16T05:29:36.143Z,0.47
2023-02-16T05:30:36.464Z,0.49
2023-02-16T05:31:36.165Z,0.47
2023-02-16T05:32:36.096Z,0.46
2023-02-16T05:33:36.087Z,0.49
2023-02-16T05:34:36.077Z,0.46
2023-02-16T05:35:36.090Z,0.49
2023-02-16T05:36:36.063Z,0.44
2023-02-16T05:37:36.053Z,0.44
2023-02-16T05:38:36.034Z,0.43
2023-02-16T05:39:36.042Z,0.44
2023-02-16T05:40:36.220Z,0.44
2023-02-16T05:41:36.071Z,0.43
2023-02-16T05:42:36.056Z,0.41
2023-02-16T05:43:36.052Z,0.43
2023-02-16T05:44:36.041Z,0.41
2023-02-16T05:45:36.076Z,0.46
2023-02-16T05:46:36.103Z,0.47
2023-02-16T05:47:36.010Z,0.41
2023-02-16T05:48:35.999Z,0.40
2023-02-16T05:49:36.019Z,0.40
2023-02-16T05:50:35.984Z,0.40
2023-02-16T05:51:35.973Z,0.37
2023-02-16T05:52:35.957Z,0.34
2023-02-16T05:53:35.953Z,0.34
2023-02-16T05:54:35.942Z,0.34
2023-02-16T05:55:36.304Z,0.37
2023-02-16T05:56:35.920Z,0.37
2023-02-16T05:57:35.918Z,0.39
2023-02-16T05:58:35.894Z,0.34
2023-02-16T05:59:35.911Z,0.29
2023-02-16T06:00:35.881Z,0.34
2023-02-16T06:01:35.868Z,0.34
2023-02-16T06:02:35.869Z,0.34
2023-02-16T06:03:35.941Z,0.40
2023-02-16T06:04:35.840Z,0.36
2023-02-16T06:05:35.844Z,0.37
2023-02-16T06:06:35.821Z,0.36
2023-02-16T06:07:35.813Z,0.37
2023-02-16T06:08:35.743Z,0.40
2023-02-16T06:09:35.837Z,0.40
2023-02-16T06:10:35.738Z,0.37
2023-02-16T06:11:35.721Z,0.39
2023-02-16T06:12:35.763Z,0.39
2023-02-16T06:13:35.743Z,0.39
2023-02-16T06:14:35.693Z,0.39
2023-02-16T06:15:35.745Z,0.40
2023-02-16T06:16:35.721Z,0.37
2023-02-16T06:17:35.710Z,0.36
2023-02-16T06:18:35.701Z,0.39
2023-02-16T06:19:35.658Z,0.39
2023-02-16T06:20:35.648Z,0.34
2023-02-16T06:21:35.625Z,0.32
2023-02-16T06:22:35.610Z,0.32
2023-02-16T06:23:35.614Z,0.32
2023-02-16T06:24:35.629Z,0.36
2023-02-16T06:25:35.594Z,0.34
2023-02-16T06:26:35.576Z,0.37
2023-02-16T06:27:35.553Z,0.36
2023-02-16T06:28:35.542Z,0.34
2023-02-16T06:29:35.565Z,0.36
2023-02-16T06:30:35.777Z,0.36
2023-02-16T06:31:36.724Z,0.37
2023-02-16T06:32:35.550Z,0.36
2023-02-16T06:33:35.495Z,0.34
2023-02-16T06:34:35.490Z,0.34
2023-02-16T06:35:35.491Z,0.36
2023-02-16T06:36:35.477Z,0.34
2023-02-16T06:37:35.452Z,0.37
2023-02-16T06:38:35.456Z,0.36
2023-02-16T06:39:35.438Z,0.37
2023-02-16T06:40:35.427Z,0.36
2023-02-16T06:41:35.467Z,0.40
2023-02-16T06:42:35.418Z,0.39
2023-02-16T06:43:35.389Z,0.41
2023-02-16T06:44:35.394Z,0.39
2023-02-16T06:45:35.382Z,0.39
2023-02-16T06:46:35.407Z,0.39
2023-02-16T06:47:35.354Z,0.40
2023-02-16T06:48:35.356Z,0.40
2023-02-16T06:49:35.337Z,0.39
2023-02-16T06:50:35.641Z,0.40
2023-02-16T06:51:35.326Z,0.40
2023-02-16T06:52:35.304Z,0.43
2023-02-16T06:53:35.299Z,0.46
2023-02-16T06:54:35.290Z,0.46
2023-02-16T06:55:35.290Z,0.47
2023-02-16T06:56:37.672Z,0.47
2023-02-16T06:57:35.253Z,0.46
2023-02-16T06:58:35.279Z,0.47
2023-02-16T06:59:35.247Z,0.44
2023-02-16T07:00:35.668Z,0.47
2023-02-16T07:01:35.219Z,0.46
2023-02-16T07:02:35.207Z,0.46
2023-02-16T07:03:35.260Z,0.44
2023-02-16T07:04:35.204Z,0.46
2023-02-16T07:05:35.969Z,0.43
2023-02-16T07:06:35.182Z,0.44
2023-02-16T07:07:35.833Z,0.41
2023-02-16T07:08:35.951Z,0.44
2023-02-16T07:09:35.135Z,0.41
2023-02-16T07:10:48.907Z,0.40
2023-02-16T07:11:35.128Z,0.41
2023-02-16T07:12:35.103Z,0.43
2023-02-16T07:13:35.097Z,0.44
2023-02-16T07:14:35.084Z,0.43
2023-02-16T07:15:35.075Z,0.43
2023-02-16T07:16:35.096Z,0.43
2023-02-16T07:17:35.061Z,0.46
2023-02-16T07:18:35.063Z,0.46
2023-02-16T07:19:35.033Z,0.46
2023-02-16T07:20:35.068Z,0.46
2023-02-16T07:21:35.034Z,0.49
2023-02-16T07:22:35.018Z,0.50
2023-02-16T07:23:35.017Z,0.47
2023-02-16T07:24:35.004Z,0.46
2023-02-16T07:25:36.777Z,0.43
2023-02-16T07:26:34.969Z,0.43
2023-02-16T07:27:34.952Z,0.40
2023-02-16T07:28:34.944Z,0.44
2023-02-16T07:29:34.930Z,0.44
2023-02-16T07:30:35.034Z,0.47
2023-02-16T07:31:34.959Z,0.46
2023-02-16T07:32:34.914Z,0.49
2023-02-16T07:33:34.894Z,0.46
2023-02-16T07:34:34.892Z,0.47
2023-02-16T07:35:34.904Z,0.47
2023-02-16T07:36:34.878Z,0.46
2023-02-16T07:37:34.849Z,0.44
2023-02-16T07:38:34.850Z,0.47
2023-02-16T07:39:34.832Z,0.49
2023-02-16T07:40:34.833Z,0.49
2023-02-16T07:41:34.816Z,0.50
2023-02-16T07:42:34.809Z,0.49
2023-02-16T07:43:34.803Z,0.44
2023-02-16T07:44:34.785Z,0.41
2023-02-16T07:45:34.865Z,0.41
2023-02-16T07:46:34.771Z,0.41
2023-02-16T07:47:34.753Z,0.41
2023-02-16T07:48:34.753Z,0.44
2023-02-16T07:49:34.732Z,0.44
2023-02-16T07:50:34.723Z,0.47
2023-02-16T07:51:34.891Z,0.49
2023-02-16T07:52:34.712Z,0.47
2023-02-16T07:53:34.689Z,0.49
2023-02-16T07:54:34.696Z,0.55
2023-02-16T07:55:34.678Z,0.55
2023-02-16T07:56:34.707Z,0.55
2023-02-16T07:57:34.668Z,0.55
2023-02-16T07:58:34.674Z,0.55
2023-02-16T07:59:34.634Z,0.52
2023-02-16T08:00:34.626Z,0.55
2023-02-16T08:01:34.622Z,0.55
2023-02-16T08:02:34.793Z,0.55
2023-02-16T08:03:34.588Z,0.55
2023-02-16T08:04:34.626Z,0.52
2023-02-16T08:05:34.592Z,0.52
2023-02-16T08:06:34.582Z,0.56
2023-02-16T08:07:34.543Z,0.55
2023-02-16T08:08:34.549Z,0.50
2023-02-16T08:09:34.534Z,0.56
2023-02-16T08:10:34.525Z,0.56
2023-02-16T08:11:34.517Z,0.58
2023-02-16T08:12:34.509Z,0.60
2023-02-16T08:13:34.490Z,0.62
2023-02-16T08:14:34.491Z,0.60
2023-02-16T08:15:34.474Z,0.59
2023-02-16T08:16:34.516Z,0.60
2023-02-16T08:17:34.468Z,0.58
2023-02-16T08:18:34.458Z,0.60
2023-02-16T08:19:34.435Z,0.65
2023-02-16T08:20:53.856Z,0.66
2023-02-16T08:21:34.462Z,0.65
2023-02-16T08:22:34.407Z,0.68
2023-02-16T08:23:34.392Z,0.70
2023-02-16T08:24:34.396Z,0.68
2023-02-16T08:25:34.382Z,0.70
2023-02-16T08:26:34.379Z,0.77
2023-02-16T08:27:34.358Z,0.77
2023-02-16T08:28:34.342Z,0.74
2023-02-16T08:29:34.342Z,0.76
2023-02-16T08:30:34.397Z,0.76
2023-02-16T08:31:34.850Z,0.76
2023-02-16T08:32:34.322Z,0.73
2023-02-16T08:33:34.328Z,0.73
2023-02-16T08:34:34.292Z,0.76
2023-02-16T08:35:34.277Z,0.76
2023-02-16T08:36:35.049Z,0.76
2023-02-16T08:37:34.258Z,0.74
2023-02-16T08:38:34.254Z,0.69
2023-02-16T08:39:34.231Z,0.73
2023-02-16T08:40:34.244Z,0.69
2023-02-16T08:41:34.544Z,0.74
2023-02-16T08:42:34.211Z,0.78
2023-02-16T08:43:34.195Z,0.78
2023-02-16T08:44:34.251Z,0.80
2023-02-16T08:45:34.233Z,0.76
2023-02-16T08:46:34.601Z,0.76
2023-02-16T08:47:34.174Z,0.76
2023-02-16T08:48:34.192Z,0.73
2023-02-16T08:49:34.147Z,0.70
2023-02-16T08:50:34.144Z,0.70
2023-02-16T08:51:34.425Z,0.73
2023-02-16T08:52:34.116Z,0.73
2023-02-16T08:53:34.107Z,0.76
2023-02-16T08:54:34.084Z,0.77
2023-02-16T08:55:34.070Z,0.78
2023-02-16T08:56:34.563Z,0.80
2023-02-16T08:57:34.087Z,0.81
2023-02-16T08:58:34.054Z,0.83
2023-02-16T08:59:34.032Z,0.86
2023-02-16T09:00:34.037Z,0.84
2023-02-16T09:01:34.399Z,0.88
2023-02-16T09:02:34.080Z,0.92
2023-02-16T09:03:33.989Z,0.91
2023-02-16T09:04:33.981Z,0.92
2023-02-16T09:05:33.986Z,0.92
2023-02-16T09:06:34.873Z,0.95
2023-02-16T09:07:33.943Z,0.94
2023-02-16T09:08:33.944Z,0.98
2023-02-16T09:09:33.926Z,0.95
2023-02-16T09:10:33.924Z,0.95
2023-02-16T09:11:34.199Z,0.98
2023-02-16T09:12:33.896Z,0.98
2023-02-16T09:13:33.888Z,1.01
2023-02-16T09:14:33.879Z,0.99
2023-02-16T09:15:33.870Z,0.92
2023-02-16T09:16:34.412Z,0.92
2023-02-16T09:17:33.848Z,0.95
2023-02-16T09:18:33.847Z,0.98
2023-02-16T09:19:33.824Z,0.96
2023-02-16T09:20:33.820Z,0.96
2023-02-16T09:21:34.493Z,0.99
2023-02-16T09:22:33.809Z,0.99
2023-02-16T09:23:33.789Z,1.01
2023-02-16T09:24:33.781Z,1.01
2023-02-16T09:25:33.768Z,0.98
2023-02-16T09:26:33.762Z,1.01
2023-02-16T09:27:33.752Z,0.96
2023-02-16T09:28:33.738Z,0.95
2023-02-16T09:29:33.727Z,0.94
2023-02-16T09:30:33.930Z,0.95
2023-02-16T09:31:33.810Z,0.95
2023-02-16T09:32:33.708Z,0.96
2023-02-16T09:33:33.684Z,0.98
2023-02-16T09:34:33.686Z,1.04
2023-02-16T09:35:33.662Z,1.01
2023-02-16T09:36:33.668Z,0.99
2023-02-16T09:37:33.646Z,0.99
2023-02-16T09:38:33.647Z,1.04
2023-02-16T09:39:33.628Z,1.05
2023-02-16T09:40:33.627Z,1.08
2023-02-16T09:41:33.610Z,1.05
2023-02-16T09:42:33.607Z,1.05
2023-02-16T09:43:33.585Z,1.04
2023-02-16T09:44:33.653Z,1.06
2023-02-16T09:45:33.567Z,1.05
2023-02-16T09:46:33.573Z,1.10
2023-02-16T09:47:33.561Z,1.13
2023-02-16T09:48:33.536Z,1.12
2023-02-16T09:49:33.528Z,1.17
2023-02-16T09:50:52.580Z,1.16
2023-02-16T09:51:34.635Z,1.22
2023-02-16T09:52:33.497Z,1.23
2023-02-16T09:53:33.484Z,1.24
2023-02-16T09:54:33.480Z,1.30
2023-02-16T09:55:33.465Z,1.30
2023-02-16T09:56:33.461Z,1.31
2023-02-16T09:57:33.450Z,1.28
2023-02-16T09:58:33.441Z,1.31
2023-02-16T09:59:33.428Z,1.37
2023-02-16T10:00:33.429Z,1.37
2023-02-16T10:01:33.433Z,1.44
2023-02-16T10:02:33.447Z,1.45
2023-02-16T10:03:33.385Z,1.48
2023-02-16T10:04:33.381Z,1.56
2023-02-16T10:05:33.368Z,1.58
2023-02-16T10:06:33.356Z,1.60
2023-02-16T10:07:33.353Z,1.60
2023-02-16T10:08:33.336Z,1.66
2023-02-16T10:09:33.321Z,1.67
2023-02-16T10:10:33.313Z,1.62
2023-02-16T10:11:33.309Z,1.55
2023-02-16T10:12:33.321Z,1.55
2023-02-16T10:13:33.277Z,1.58
2023-02-16T10:14:33.277Z,1.62
2023-02-16T10:15:33.306Z,1.63
2023-02-16T10:16:33.255Z,1.60
2023-02-16T10:17:33.264Z,1.63
2023-02-16T10:18:33.247Z,1.67
2023-02-16T10:19:33.221Z,1.70
2023-02-16T10:20:33.219Z,1.68
2023-02-16T10:21:33.221Z,1.71
2023-02-16T10:22:33.203Z,1.68
2023-02-16T10:23:33.191Z,1.71
2023-02-16T10:24:33.178Z,1.76
2023-02-16T10:25:33.175Z,1.76
2023-02-16T10:26:33.175Z,1.78
2023-02-16T10:27:33.162Z,1.77
2023-02-16T10:28:33.143Z,1.81
2023-02-16T10:29:33.121Z,1.85
2023-02-16T10:30:33.118Z,1.89
2023-02-16T10:31:33.203Z,1.89
2023-02-16T10:32:35.477Z,1.88
2023-02-16T10:33:33.098Z,1.89
2023-02-16T10:34:33.091Z,1.89
2023-02-16T10:35:33.062Z,1.87
2023-02-16T10:36:33.058Z,1.85
2023-02-16T10:37:33.053Z,1.91
2023-02-16T10:38:33.051Z,1.87
2023-02-16T10:39:33.031Z,1.85
2023-02-16T10:40:33.017Z,1.88
2023-02-16T10:41:33.022Z,1.94
2023-02-16T10:42:33.011Z,1.97
2023-02-16T10:43:32.985Z,1.99
2023-02-16T10:44:32.977Z,2.04
2023-02-16T10:45:32.987Z,2.10
2023-02-16T10:46:33.001Z,2.10
2023-02-16T10:47:32.977Z,2.11
2023-02-16T10:48:32.945Z,2.15
2023-02-16T10:49:32.933Z,2.11
2023-02-16T10:50:32.927Z,2.14
2023-02-16T10:51:32.919Z,2.13
2023-02-16T10:52:32.912Z,2.17
2023-02-16T10:53:32.895Z,2.24
2023-02-16T10:54:32.885Z,2.32
2023-02-16T10:55:32.896Z,2.38
2023-02-16T10:56:32.873Z,2.39
2023-02-16T10:57:32.860Z,2.39
2023-02-16T10:58:32.836Z,2.46
2023-02-16T10:59:32.838Z,2.54
2023-02-16T11:00:32.818Z,2.60
2023-02-16T11:01:32.833Z,2.65
2023-02-16T11:02:32.990Z,2.68
2023-02-16T11:03:32.809Z,2.69
2023-02-16T11:04:32.872Z,2.67
2023-02-16T11:05:32.778Z,2.68
2023-02-16T11:06:34.379Z,2.64
2023-02-16T11:07:32.759Z,2.62
2023-02-16T11:08:32.749Z,2.60
2023-02-16T11:09:32.738Z,2.53
2023-02-16T11:10:32.723Z,2.54
2023-02-16T11:11:32.720Z,2.57
2023-02-16T11:12:32.720Z,2.62
2023-02-16T11:13:32.705Z,2.64
2023-02-16T11:14:32.692Z,2.67
2023-02-16T11:15:32.681Z,2.61
2023-02-16T11:16:32.662Z,2.60
2023-02-16T11:17:33.051Z,2.62
2023-02-16T11:18:32.642Z,2.67
2023-02-16T11:19:32.636Z,2.72
2023-02-16T11:20:32.630Z,2.72
2023-02-16T11:21:32.622Z,2.69
2023-02-16T11:22:33.700Z,2.68
2023-02-16T11:23:32.606Z,2.69
2023-02-16T11:24:32.690Z,2.74
2023-02-16T11:25:32.580Z,2.75
2023-02-16T11:26:32.586Z,2.80
2023-02-16T11:27:32.879Z,2.86
2023-02-16T11:28:32.833Z,2.92
2023-02-16T11:29:32.568Z,2.97
2023-02-16T11:30:32.543Z,2.98
2023-02-16T11:31:32.614Z,3.05
2023-02-16T11:32:32.891Z,3.03
2023-02-16T11:33:32.503Z,3.07
2023-02-16T11:34:32.489Z,3.11
2023-02-16T11:35:32.482Z,3.13
2023-02-16T11:36:32.499Z,3.10
2023-02-16T11:37:32.858Z,3.08
2023-02-16T11:38:32.448Z,3.07
2023-02-16T11:39:32.441Z,3.11
2023-02-16T11:40:32.428Z,3.14
2023-02-16T11:41:32.421Z,3.19
2023-02-16T11:42:32.712Z,3.25
2023-02-16T11:43:32.546Z,3.34
2023-02-16T11:44:32.379Z,3.41
2023-02-16T11:45:32.413Z,3.45
2023-02-16T11:46:32.396Z,3.51
2023-02-16T11:47:32.715Z,3.56
2023-02-16T11:48:32.337Z,3.53
2023-02-16T11:49:32.339Z,3.60
2023-02-16T11:50:32.313Z,3.73
2023-02-16T11:51:32.310Z,3.81
2023-02-16T11:52:33.013Z,3.74
2023-02-16T11:53:32.289Z,3.76
2023-02-16T11:54:32.272Z,3.83
2023-02-16T11:55:32.276Z,3.86
2023-02-16T11:56:32.263Z,3.94
2023-02-16T11:57:32.466Z,3.86
2023-02-16T11:58:32.235Z,3.81
2023-02-16T11:59:32.231Z,3.78
2023-02-16T12:00:32.223Z,3.80
2023-02-16T12:01:32.212Z,3.86
2023-02-16T12:02:32.195Z,4.05
2023-02-16T12:03:32.256Z,4.14
2023-02-16T12:04:32.175Z,4.35
2023-02-16T12:05:32.207Z,4.50
2023-02-16T12:06:32.164Z,4.56
2023-02-16T12:07:32.152Z,4.74
2023-02-16T12:08:32.150Z,5.04
2023-02-16T12:09:32.130Z,5.15
2023-02-16T12:10:32.111Z,5.23
2023-02-16T12:11:32.138Z,5.30
2023-02-16T12:12:32.122Z,5.59
2023-02-16T12:13:32.101Z,5.91
2023-02-16T12:14:32.069Z,6.24
2023-02-16T12:15:32.076Z,6.33
2023-02-16T12:16:32.111Z,6.52
2023-02-16T12:17:32.049Z,6.69
2023-02-16T12:18:32.045Z,6.81
2023-02-16T12:19:32.035Z,6.66
2023-02-16T12:20:32.036Z,6.70
2023-02-16T12:21:32.011Z,6.52
2023-02-16T12:22:31.997Z,6.69
2023-02-16T12:23:31.999Z,6.62
2023-02-16T12:24:31.978Z,6.60
2023-02-16T12:25:31.975Z,6.49
2023-02-16T12:26:31.949Z,6.46
2023-02-16T12:27:31.954Z,6.16
2023-02-16T12:28:31.933Z,6.08
2023-02-16T12:29:31.929Z,6.09
2023-02-16T12:30:32.024Z,6.04
2023-02-16T12:31:32.091Z,6.09
2023-02-16T12:32:31.896Z,6.07
2023-02-16T12:33:31.884Z,6.01
2023-02-16T12:34:31.865Z,5.97
2023-02-16T12:35:31.861Z,5.86
2023-02-16T12:36:31.844Z,5.76
2023-02-16T12:37:31.836Z,5.82
2023-02-16T12:38:31.828Z,5.84
2023-02-16T12:39:31.834Z,5.86
2023-02-16T12:40:31.797Z,5.87
2023-02-16T12:41:31.796Z,5.80
2023-02-16T12:42:31.775Z,5.72
2023-02-16T12:43:31.777Z,5.83
2023-02-16T12:44:31.767Z,6.04
2023-02-16T12:45:31.830Z,5.91
2023-02-16T12:46:31.737Z,5.79
2023-02-16T12:47:31.738Z,5.80
2023-02-16T12:48:31.735Z,5.89
2023-02-16T12:49:31.720Z,5.94
2023-02-16T12:50:31.720Z,5.98
2023-02-16T12:51:31.707Z,6.01
2023-02-16T12:52:31.693Z,6.09
2023-02-16T12:53:31.671Z,6.16
2023-02-16T12:54:31.663Z,5.98
2023-02-16T12:55:31.658Z,5.86
2023-02-16T12:56:31.648Z,5.80
2023-02-16T12:57:31.619Z,5.84
2023-02-16T12:58:31.949Z,5.87
2023-02-16T12:59:31.610Z,5.90
2023-02-16T13:00:31.591Z,5.89
2023-02-16T13:01:31.677Z,5.76
2023-02-16T13:02:31.597Z,5.64
2023-02-16T13:03:31.601Z,5.57
2023-02-16T13:04:31.568Z,5.51
2023-02-16T13:05:31.559Z,5.46
2023-02-16T13:06:31.540Z,5.51
2023-02-16T13:07:33.003Z,5.51
2023-02-16T13:08:31.613Z,5.48
2023-02-16T13:09:31.510Z,5.44
2023-02-16T13:10:31.501Z,5.43
2023-02-16T13:11:31.563Z,5.44
2023-02-16T13:12:31.480Z,5.43
2023-02-16T13:13:31.472Z,5.41
2023-02-16T13:14:31.460Z,5.36
2023-02-16T13:15:31.452Z,5.38
2023-02-16T13:16:31.518Z,5.38
2023-02-16T13:17:31.426Z,5.39
2023-02-16T13:18:31.434Z,5.46